createdAt,value
2019-02-22T00:01:17.701Z,60.07
2019-02-22T00:03:47.982Z,70.80
2019-02-22T00:06:18.103Z,71.13
2019-02-22T00:08:48.399Z,64.97
2019-02-22T00:11:18.565Z,67.20
2019-02-22T00:13:49.175Z,68.90
2019-02-22T00:16:19.360Z,69.37
2019-02-22T00:18:50.290Z,74.23
2019-02-22T00:21:20.464Z,74.93
2019-02-22T00:23:50.660Z,77.00
2019-02-22T00:26:20.842Z,79.20
2019-02-22T00:28:51.207Z,68.93
2019-02-22T00:31:22.977Z,76.70
2019-02-22T00:33:53.162Z,73.13
2019-02-22T00:36:23.466Z,80.13
2019-02-22T00:38:54.036Z,73.07
2019-02-22T00:41:24.242Z,79.00
2019-02-22T00:43:54.552Z,82.63
2019-02-22T00:46:24.702Z,81.93
2019-02-22T00:49:06.586Z,74.27
2019-02-22T00:51:36.748Z,75.40
2019-02-22T00:54:06.956Z,79.63
2019-02-22T00:56:37.543Z,75.47
2019-02-22T00:59:07.680Z,77.90
2019-02-22T01:01:37.868Z,81.07
2019-02-22T01:04:08.150Z,87.47
2019-02-22T01:06:38.368Z,86.00
2019-02-22T01:09:08.762Z,79.17
2019-02-22T01:11:39.312Z,84.13
2019-02-22T01:14:09.524Z,82.57
2019-02-22T01:16:39.700Z,86.20
2019-02-22T01:19:10.268Z,100.40
2019-02-22T01:21:40.416Z,89.47
2019-02-22T01:24:10.657Z,86.37
2019-02-22T01:26:41.159Z,87.93
2019-02-22T01:29:11.381Z,97.43
2019-02-22T01:31:41.550Z,94.33
2019-02-22T01:34:11.889Z,93.33
2019-02-22T01:36:42.053Z,87.33
2019-02-22T01:39:12.257Z,91.80
2019-02-22T01:41:42.461Z,93.90
2019-02-22T01:44:24.117Z,97.17
2019-02-22T01:46:54.694Z,95.07
2019-02-22T01:49:24.985Z,104.33
2019-02-22T01:51:55.463Z,101.73
2019-02-22T01:54:25.761Z,100.13
2019-02-22T01:56:56.924Z,116.43
2019-02-22T01:59:27.126Z,102.77
2019-02-22T02:01:57.299Z,113.27
2019-02-22T02:04:27.418Z,110.07
2019-02-22T02:06:57.965Z,118.40
2019-02-22T02:09:28.266Z,116.30
2019-02-22T02:11:58.554Z,103.40
2019-02-22T02:14:28.763Z,111.33
2019-02-22T02:16:58.925Z,109.87
2019-02-22T02:19:29.113Z,120.90
2019-02-22T02:21:59.282Z,111.20
2019-02-22T02:24:29.509Z,89.83
2019-02-22T02:26:59.989Z,82.33
2019-02-22T02:29:39.335Z,92.20
2019-02-22T02:32:09.424Z,92.37
2019-02-22T02:34:40.687Z,85.07
2019-02-22T02:37:10.837Z,87.47
2019-02-22T02:39:41.037Z,82.40
2019-02-22T02:42:11.521Z,79.53
2019-02-22T02:44:41.727Z,80.20
2019-02-22T02:47:11.896Z,81.60
2019-02-22T02:49:42.461Z,87.47
2019-02-22T02:52:12.695Z,77.40
2019-02-22T02:54:42.902Z,64.67
2019-02-22T02:57:13.417Z,64.87
2019-02-22T02:59:43.690Z,64.70
2019-02-22T03:02:20.122Z,72.23
2019-02-22T03:04:50.319Z,69.57
2019-02-22T03:07:51.802Z,67.87
2019-02-22T03:10:22.039Z,64.43
2019-02-22T03:12:52.244Z,69.77
2019-02-22T03:15:22.464Z,63.77
2019-02-22T03:17:52.668Z,74.67
2019-02-22T03:20:22.874Z,57.80
2019-02-22T03:22:53.066Z,73.80
2019-02-22T03:25:23.593Z,63.33
2019-02-22T03:27:53.749Z,60.07
2019-02-22T03:30:23.981Z,54.60
2019-02-22T03:32:54.542Z,51.97
2019-02-22T03:35:24.767Z,60.97
2019-02-22T03:37:54.900Z,58.73
2019-02-22T03:40:25.089Z,55.70
2019-02-22T03:42:55.267Z,52.37
2019-02-22T03:45:25.464Z,59.53
2019-02-22T03:47:56.043Z,58.30
2019-02-22T03:50:26.196Z,62.90
2019-02-22T03:53:05.557Z,53.73
2019-02-22T03:55:35.792Z,55.53
2019-02-22T03:58:05.958Z,53.40
2019-02-22T04:00:36.165Z,44.57
2019-02-22T04:03:07.185Z,59.60
2019-02-22T04:05:37.449Z,52.40
2019-02-22T04:08:07.863Z,54.73
2019-02-22T04:10:38.075Z,42.03
2019-02-22T04:13:08.281Z,52.27
2019-02-22T04:15:39.558Z,53.10
2019-02-22T04:18:09.743Z,49.17
2019-02-22T04:20:40.645Z,44.10
2019-02-22T04:23:11.285Z,52.63
2019-02-22T04:25:41.551Z,53.17
2019-02-22T04:28:11.812Z,52.07
2019-02-22T04:30:41.995Z,45.83
2019-02-22T04:33:12.257Z,52.90
2019-02-22T04:35:43.185Z,54.47
2019-02-22T04:38:13.761Z,44.97
2019-02-22T04:40:43.958Z,45.70
2019-02-22T04:43:14.239Z,52.73
2019-02-22T04:45:44.419Z,45.67
2019-02-22T04:48:14.911Z,44.37
2019-02-22T04:50:45.441Z,43.77
2019-02-22T04:53:16.891Z,43.50
2019-02-22T04:55:47.025Z,38.80
2019-02-22T04:58:17.260Z,57.90
2019-02-22T05:00:47.896Z,50.17
2019-02-22T05:03:18.131Z,46.33
2019-02-22T05:05:48.493Z,46.17
2019-02-22T05:08:18.667Z,44.50
2019-02-22T05:10:48.868Z,48.20
2019-02-22T05:13:19.050Z,43.80
2019-02-22T05:15:49.271Z,51.70
2019-02-22T05:18:19.727Z,42.70
2019-02-22T05:20:49.941Z,42.33
2019-02-22T05:23:20.192Z,49.50
2019-02-22T05:25:50.708Z,51.37
2019-02-22T05:28:20.895Z,50.30
2019-02-22T05:30:51.106Z,40.90
2019-02-22T05:33:21.935Z,46.53
2019-02-22T05:35:52.148Z,43.90
2019-02-22T05:38:22.397Z,45.70
2019-02-22T05:40:52.671Z,48.53
2019-02-22T05:43:22.908Z,54.03
2019-02-22T05:45:53.107Z,49.53
2019-02-22T05:48:25.320Z,46.63
2019-02-22T05:50:55.497Z,43.77
2019-02-22T05:53:25.748Z,43.47
2019-02-22T05:55:56.050Z,34.83
2019-02-22T05:58:26.306Z,38.93
2019-02-22T06:00:56.800Z,40.20
2019-02-22T06:03:27.002Z,48.37
2019-02-22T06:05:57.113Z,39.57
2019-02-22T06:08:27.287Z,41.20
2019-02-22T06:10:57.896Z,41.27
2019-02-22T06:13:28.061Z,47.80
2019-02-22T06:15:58.265Z,43.03
2019-02-22T06:18:28.437Z,38.73
2019-02-22T06:20:58.557Z,41.90
2019-02-22T06:23:29.100Z,35.90
2019-02-22T06:25:59.410Z,40.00
2019-02-22T06:28:29.636Z,35.23
2019-02-22T06:30:59.857Z,40.80
2019-02-22T06:33:30.032Z,33.10
2019-02-22T06:36:00.579Z,35.73
2019-02-22T06:38:30.868Z,37.97
2019-02-22T06:41:01.124Z,35.90
2019-02-22T06:43:31.950Z,37.23
2019-02-22T06:46:02.147Z,46.70
2019-02-22T06:48:32.357Z,36.60
2019-02-22T06:51:02.583Z,36.70
2019-02-22T06:53:32.795Z,42.53
2019-02-22T06:56:03.053Z,47.47
2019-02-22T06:58:33.550Z,43.33
2019-02-22T07:01:04.103Z,42.93
2019-02-22T07:03:34.475Z,49.87
2019-02-22T07:06:05.635Z,42.53
2019-02-22T07:08:37.187Z,36.40
2019-02-22T07:11:15.569Z,34.97
2019-02-22T07:13:45.797Z,40.07
2019-02-22T07:16:16.019Z,43.87
2019-02-22T07:18:46.132Z,41.90
2019-02-22T07:21:16.303Z,39.07
2019-02-22T07:23:47.054Z,32.67
2019-02-22T07:26:17.505Z,41.23
2019-02-22T07:28:47.978Z,34.57
2019-02-22T07:31:18.179Z,39.20
2019-02-22T07:33:48.345Z,36.97
2019-02-22T07:36:18.540Z,38.60
2019-02-22T07:38:48.958Z,41.47
2019-02-22T07:41:19.177Z,48.70
2019-02-22T07:43:49.430Z,39.47
2019-02-22T07:46:19.628Z,40.73
2019-02-22T07:48:50.173Z,47.70
2019-02-22T07:51:20.370Z,38.20
2019-02-22T07:53:50.548Z,46.20
2019-02-22T07:56:20.749Z,37.17
2019-02-22T07:58:50.930Z,39.17
2019-02-22T08:01:21.277Z,41.10
2019-02-22T08:03:51.456Z,38.33
2019-02-22T08:06:21.688Z,47.30
2019-02-22T08:08:51.878Z,44.30
2019-02-22T08:11:22.072Z,38.87
2019-02-22T08:13:52.233Z,52.37
2019-02-22T08:16:22.444Z,37.70
2019-02-22T08:19:00.951Z,40.97
2019-02-22T08:21:24.518Z,48.50
2019-02-22T08:23:54.733Z,50.60
2019-02-22T08:26:24.945Z,36.97
2019-02-22T08:28:55.465Z,53.23
2019-02-22T08:31:26.009Z,41.33
2019-02-22T08:33:57.161Z,40.40
2019-02-22T08:36:27.630Z,41.53
2019-02-22T08:38:58.249Z,41.20
2019-02-22T08:41:28.469Z,37.30
2019-02-22T08:43:58.640Z,40.23
2019-02-22T08:46:30.343Z,42.53
2019-02-22T08:49:00.612Z,44.80
2019-02-22T08:51:31.989Z,39.10
2019-02-22T08:54:02.223Z,40.53
2019-02-22T08:56:32.439Z,36.60
2019-02-22T08:59:02.778Z,31.13
2019-02-22T09:01:35.563Z,34.40
2019-02-22T09:04:04.921Z,33.17
2019-02-22T09:06:35.273Z,37.27
2019-02-22T09:09:07.237Z,39.77
2019-02-22T09:11:37.663Z,35.97
2019-02-22T09:14:07.777Z,36.30
2019-02-22T09:16:37.981Z,46.17
2019-02-22T09:19:08.152Z,43.10
2019-02-22T09:21:38.356Z,45.17
2019-02-22T09:24:08.495Z,44.47
2019-02-22T09:26:39.164Z,38.93
2019-02-22T09:29:10.764Z,38.10
2019-02-22T09:31:40.967Z,39.63
2019-02-22T09:34:11.586Z,44.43
2019-02-22T09:36:42.099Z,46.30
2019-02-22T09:39:12.282Z,46.87
2019-02-22T09:41:42.548Z,54.33
2019-02-22T09:44:12.766Z,51.10
2019-02-22T09:46:43.634Z,55.43
2019-02-22T09:49:14.172Z,57.60
2019-02-22T09:51:44.404Z,50.70
2019-02-22T09:54:14.594Z,53.90
2019-02-22T09:56:45.146Z,52.63
2019-02-22T09:59:15.322Z,60.37
2019-02-22T10:01:45.531Z,61.50
2019-02-22T10:04:16.128Z,70.70
2019-02-22T10:06:46.352Z,60.13
2019-02-22T10:09:16.499Z,67.10
2019-02-22T10:11:46.790Z,67.10
2019-02-22T10:14:16.985Z,64.27
2019-02-22T10:16:47.942Z,67.47
2019-02-22T10:19:18.488Z,63.87
2019-02-22T10:21:48.713Z,66.83
2019-02-22T10:24:18.883Z,66.40
2019-02-22T10:26:49.160Z,65.67
2019-02-22T10:29:19.326Z,68.00
2019-02-22T10:31:49.862Z,68.67
2019-02-22T10:34:20.011Z,66.13
2019-02-22T10:36:50.261Z,65.07
2019-02-22T10:39:20.515Z,65.30
2019-02-22T10:41:50.728Z,61.63
2019-02-22T10:44:21.290Z,69.27
2019-02-22T10:46:51.511Z,64.53
2019-02-22T10:49:21.705Z,66.00
2019-02-22T10:51:52.165Z,65.00
2019-02-22T10:54:22.373Z,68.07
2019-02-22T10:56:52.598Z,61.33
2019-02-22T10:59:23.230Z,62.50
2019-02-22T11:01:53.778Z,66.87
2019-02-22T11:04:23.953Z,67.07
2019-02-22T11:06:54.151Z,73.03
2019-02-22T11:09:24.346Z,63.73
2019-02-22T11:11:54.961Z,66.47
2019-02-22T11:14:29.317Z,62.23
2019-02-22T11:16:57.421Z,69.27
2019-02-22T11:19:27.982Z,65.00
2019-02-22T11:21:58.196Z,63.87
2019-02-22T11:24:28.901Z,64.20
2019-02-22T11:26:59.180Z,62.43
2019-02-22T11:29:29.799Z,68.97
2019-02-22T11:31:59.998Z,66.37
2019-02-22T11:34:30.576Z,65.70
2019-02-22T11:37:01.845Z,60.13
2019-02-22T11:39:32.105Z,67.37
2019-02-22T11:42:02.330Z,69.40
2019-02-22T11:44:40.199Z,66.10
2019-02-22T11:47:04.858Z,68.60
2019-02-22T11:49:35.100Z,63.83
2019-02-22T11:52:05.662Z,68.33
2019-02-22T11:54:35.833Z,64.10
2019-02-22T11:57:06.687Z,67.00
2019-02-22T11:59:37.046Z,59.40
2019-02-22T12:02:07.684Z,62.00
2019-02-22T12:04:37.872Z,61.10
2019-02-22T12:07:08.446Z,58.57
2019-02-22T12:09:38.646Z,55.00
2019-02-22T12:12:08.928Z,61.00
2019-02-22T12:14:39.260Z,56.03
2019-02-22T12:17:09.498Z,59.03
2019-02-22T12:19:39.716Z,57.80
2019-02-22T12:22:09.868Z,55.67
2019-02-22T12:24:40.109Z,58.13
2019-02-22T12:27:10.340Z,53.43
2019-02-22T12:29:40.576Z,51.40
2019-02-22T12:32:10.795Z,58.93
2019-02-22T12:34:41.306Z,52.67
2019-02-22T12:37:11.457Z,50.47
2019-02-22T12:39:41.966Z,56.97
2019-02-22T12:42:12.556Z,56.63
2019-02-22T12:44:42.756Z,62.07
2019-02-22T12:47:12.956Z,64.53
2019-02-22T12:49:43.202Z,63.77
2019-02-22T12:52:13.510Z,61.13
2019-02-22T12:54:43.795Z,60.73
2019-02-22T12:57:13.980Z,62.47
2019-02-22T12:59:44.176Z,57.07
2019-02-22T13:02:14.701Z,64.70
2019-02-22T13:04:44.911Z,57.80
2019-02-22T13:07:15.189Z,59.43
2019-02-22T13:09:45.301Z,62.60
2019-02-22T13:12:17.424Z,56.33
2019-02-22T13:14:47.461Z,60.83
2019-02-22T13:17:17.619Z,55.27
2019-02-22T13:19:47.853Z,55.67
2019-02-22T13:22:18.081Z,59.03
2019-02-22T13:24:48.285Z,62.07
2019-02-22T13:27:19.302Z,55.90
2019-02-22T13:29:49.922Z,61.20
2019-02-22T13:32:20.746Z,63.10
2019-02-22T13:34:50.916Z,65.63
2019-02-22T13:37:21.500Z,62.10
2019-02-22T13:39:51.693Z,58.37
2019-02-22T13:42:21.928Z,54.67
2019-02-22T13:44:52.199Z,63.70
2019-02-22T13:47:22.827Z,56.87
2019-02-22T13:49:53.262Z,54.50
2019-02-22T13:52:23.378Z,53.57
2019-02-22T13:54:53.580Z,57.17
2019-02-22T13:57:23.798Z,59.53
2019-02-22T13:59:53.992Z,60.57
2019-02-22T14:02:24.290Z,59.50
2019-02-22T14:04:54.393Z,60.87
2019-02-22T14:07:24.609Z,67.87
2019-02-22T14:09:55.251Z,79.70
2019-02-22T14:12:26.140Z,78.37
2019-02-22T14:14:56.340Z,73.63
2019-02-22T14:17:26.869Z,85.40
2019-02-22T14:19:57.106Z,84.07
2019-02-22T14:22:27.333Z,96.07
2019-02-22T14:24:57.542Z,87.57
2019-02-22T14:27:27.771Z,86.43
2019-02-22T14:29:57.970Z,79.90
2019-02-22T14:32:28.217Z,87.77
2019-02-22T14:34:58.482Z,84.00
2019-02-22T14:37:28.789Z,85.83
2019-02-22T14:40:03.457Z,84.40
2019-02-22T14:42:31.435Z,80.50
2019-02-22T14:45:01.999Z,84.57
2019-02-22T14:47:32.820Z,84.10
2019-02-22T14:50:03.278Z,82.63
2019-02-22T14:52:33.559Z,99.33
2019-02-22T14:55:03.748Z,93.37
2019-02-22T14:57:33.946Z,87.97
2019-02-22T15:00:04.809Z,94.93
2019-02-22T15:02:35.421Z,94.43
2019-02-22T15:05:08.965Z,83.63
2019-02-22T15:07:38.148Z,97.63
2019-02-22T15:10:08.658Z,87.90
2019-02-22T15:12:38.962Z,86.33
2019-02-22T15:15:09.969Z,83.90
2019-02-22T15:17:58.508Z,100.73
2019-02-22T15:20:29.096Z,99.33
2019-02-22T15:22:59.359Z,92.90
2019-02-22T15:25:29.665Z,83.93
2019-02-22T15:27:59.890Z,88.20
2019-02-22T15:30:30.108Z,85.87
2019-02-22T15:33:00.423Z,81.53
2019-02-22T15:35:30.901Z,79.10
2019-02-22T15:38:01.524Z,87.93
2019-02-22T15:40:32.018Z,83.33
2019-02-22T15:43:03.448Z,79.67
2019-02-22T15:45:33.768Z,88.30
2019-02-22T15:48:04.118Z,84.73
2019-02-22T15:50:34.762Z,96.87
2019-02-22T15:53:05.212Z,86.73
2019-02-22T15:55:36.168Z,92.57
2019-02-22T15:58:06.470Z,86.10
2019-02-22T16:00:37.284Z,71.87
2019-02-22T16:03:07.646Z,91.70
2019-02-22T16:05:41.481Z,84.73
2019-02-22T16:08:12.075Z,95.40
2019-02-22T16:10:42.917Z,80.67
2019-02-22T16:13:13.463Z,85.20
2019-02-22T16:15:43.891Z,82.93
2019-02-22T16:18:14.394Z,83.47
2019-02-22T16:20:44.604Z,85.23
2019-02-22T16:23:15.268Z,83.90
2019-02-22T16:25:45.439Z,83.77
2019-02-22T16:28:15.924Z,85.70
2019-02-22T16:30:46.263Z,88.77
2019-02-22T16:33:16.482Z,84.43
2019-02-22T16:35:46.680Z,78.10
2019-02-22T16:38:16.903Z,74.70
2019-02-22T16:40:47.166Z,69.43
2019-02-22T16:43:17.368Z,72.37
2019-02-22T16:45:47.906Z,59.30
2019-02-22T16:48:18.123Z,63.57
2019-02-22T16:50:48.321Z,61.83
2019-02-22T16:53:18.543Z,59.70
2019-02-22T16:55:49.052Z,61.33
2019-02-22T16:58:19.265Z,60.47
2019-02-22T17:00:49.522Z,54.67
2019-02-22T17:03:19.825Z,48.90
2019-02-22T17:05:50.025Z,53.00
2019-02-22T17:08:20.241Z,50.73
2019-02-22T17:10:50.440Z,45.90
2019-02-22T17:13:22.289Z,43.77
2019-02-22T17:15:52.441Z,42.87
2019-02-22T17:18:22.705Z,47.23
2019-02-22T17:20:52.993Z,43.63
2019-02-22T17:23:23.215Z,41.07
2019-02-22T17:25:53.405Z,47.30
2019-02-22T17:28:23.657Z,41.13
2019-02-22T17:30:54.171Z,42.77
2019-02-22T17:33:24.773Z,46.03
2019-02-22T17:35:55.017Z,44.93
2019-02-22T17:38:25.341Z,42.50
2019-02-22T17:40:55.553Z,45.40
2019-02-22T17:43:25.913Z,46.17
2019-02-22T17:45:56.205Z,45.53
2019-02-22T17:48:26.438Z,41.63
2019-02-22T17:50:56.647Z,48.20
2019-02-22T17:53:26.954Z,38.97
2019-02-22T17:55:57.193Z,38.93
2019-02-22T17:58:27.826Z,43.53
2019-02-22T18:00:58.221Z,45.37
2019-02-22T18:03:28.545Z,42.83
2019-02-22T18:05:58.771Z,45.33
2019-02-22T18:08:29.028Z,40.27
2019-02-22T18:10:59.220Z,41.37
2019-02-22T18:13:29.858Z,43.63
2019-02-22T18:16:00.073Z,42.03
2019-02-22T18:18:30.334Z,42.37
2019-02-22T18:21:00.627Z,39.40
2019-02-22T18:23:31.287Z,42.20
2019-02-22T18:26:02.056Z,41.37
2019-02-22T18:28:32.337Z,40.23
2019-02-22T18:31:02.630Z,38.53
2019-02-22T18:33:32.904Z,43.90
2019-02-22T18:36:03.055Z,42.10
2019-02-22T18:38:33.271Z,39.97
2019-02-22T18:41:03.592Z,41.97
2019-02-22T18:43:33.912Z,42.67
2019-02-22T18:46:04.151Z,41.93
2019-02-22T18:48:34.776Z,41.03
2019-02-22T18:51:04.994Z,44.07
2019-02-22T18:53:35.248Z,41.67
2019-02-22T18:56:05.476Z,44.53
2019-02-22T18:58:36.440Z,39.77
2019-02-22T19:01:06.674Z,42.10
2019-02-22T19:03:37.192Z,35.37
2019-02-22T19:06:07.549Z,40.60
2019-02-22T19:08:37.761Z,42.23
2019-02-22T19:11:08.066Z,36.80
2019-02-22T19:13:38.396Z,36.70
2019-02-22T19:16:08.925Z,38.97
2019-02-22T19:18:39.150Z,32.47
2019-02-22T19:21:09.346Z,35.60
2019-02-22T19:23:39.573Z,36.03
2019-02-22T19:26:09.796Z,32.70
2019-02-22T19:28:40.103Z,32.30
2019-02-22T19:31:10.386Z,34.20
2019-02-22T19:33:40.814Z,37.17
2019-02-22T19:36:11.071Z,34.63
2019-02-22T19:38:41.319Z,35.77
2019-02-22T19:41:11.536Z,34.33
2019-02-22T19:43:41.846Z,36.17
2019-02-22T19:46:12.136Z,33.43
2019-02-22T19:48:42.442Z,33.00
2019-02-22T19:51:12.685Z,37.13
2019-02-22T19:53:43.377Z,34.90
2019-02-22T19:56:13.691Z,35.80
2019-02-22T19:58:44.454Z,37.70
2019-02-22T20:01:14.649Z,36.97
2019-02-22T20:03:45.022Z,40.63
2019-02-22T20:06:15.249Z,40.27
2019-02-22T20:08:45.599Z,42.97
2019-02-22T20:11:16.187Z,43.37
2019-02-22T20:13:47.100Z,44.63
2019-02-22T20:16:17.432Z,44.10
2019-02-22T20:18:47.734Z,42.20
2019-02-22T20:21:17.941Z,46.83
2019-02-22T20:23:48.301Z,46.60
2019-02-22T20:26:18.501Z,47.23
2019-02-22T20:28:49.130Z,47.50
2019-02-22T20:31:20.732Z,46.23
2019-02-22T20:33:51.111Z,47.27
2019-02-22T20:36:28.480Z,49.30
2019-02-22T20:38:53.717Z,45.83
2019-02-22T20:41:23.933Z,47.80
2019-02-22T20:43:54.473Z,44.90
2019-02-22T20:46:26.315Z,49.27
2019-02-22T20:49:00.721Z,54.83
2019-02-22T20:51:28.459Z,48.60
2019-02-22T20:53:58.914Z,50.57
2019-02-22T20:56:29.101Z,49.47
2019-02-22T20:58:59.311Z,48.97
2019-02-22T21:01:30.005Z,54.10
2019-02-22T21:04:00.271Z,46.00
2019-02-22T21:06:30.448Z,53.53
2019-02-22T21:09:01.008Z,55.00
2019-02-22T21:11:32.854Z,52.87
2019-02-22T21:14:03.138Z,53.33
2019-02-22T21:16:33.470Z,56.27
2019-02-22T21:19:04.124Z,57.87
2019-02-22T21:21:34.328Z,52.33
2019-02-22T21:24:04.616Z,57.50
2019-02-22T21:26:34.798Z,59.17
2019-02-22T21:29:05.103Z,59.57
2019-02-22T21:31:35.281Z,60.90
2019-02-22T21:34:05.471Z,61.07
2019-02-22T21:36:35.664Z,56.83
2019-02-22T21:39:06.704Z,58.93
2019-02-22T21:41:38.080Z,58.50
2019-02-22T21:44:08.290Z,59.77
2019-02-22T21:46:38.472Z,59.13
2019-02-22T21:49:08.693Z,61.43
2019-02-22T21:51:39.205Z,62.40
2019-02-22T21:54:09.425Z,59.00
2019-02-22T21:56:39.678Z,68.83
2019-02-22T21:59:10.281Z,63.97
2019-02-22T22:01:40.587Z,65.10
2019-02-22T22:04:10.821Z,66.50
2019-02-22T22:06:41.038Z,64.47
2019-02-22T22:09:12.012Z,67.53
2019-02-22T22:11:42.432Z,69.00
2019-02-22T22:14:12.714Z,66.73
2019-02-22T22:16:43.020Z,69.60
2019-02-22T22:19:13.248Z,64.97
2019-02-22T22:21:45.173Z,70.63
2019-02-22T22:24:15.403Z,60.97
2019-02-22T22:26:45.608Z,68.37
2019-02-22T22:29:15.863Z,67.60
2019-02-22T22:31:46.047Z,63.23
2019-02-22T22:34:16.347Z,64.10
2019-02-22T22:36:46.873Z,68.40
2019-02-22T22:39:17.106Z,65.10
2019-02-22T22:41:47.863Z,67.67
2019-02-22T22:44:18.516Z,74.43
2019-02-22T22:46:48.700Z,69.30
2019-02-22T22:49:19.002Z,65.20
2019-02-22T22:51:49.660Z,68.20
2019-02-22T22:54:20.341Z,62.77
2019-02-22T22:56:50.609Z,65.47
2019-02-22T22:59:20.834Z,72.80
2019-02-22T23:01:51.148Z,67.63
2019-02-22T23:04:22.912Z,66.90
2019-02-22T23:06:53.225Z,68.57
2019-02-22T23:09:24.309Z,56.90
2019-02-22T23:11:54.686Z,54.87
2019-02-22T23:14:24.910Z,56.10
2019-02-22T23:16:55.112Z,63.90
2019-02-22T23:19:25.676Z,59.87
2019-02-22T23:21:55.880Z,57.00
2019-02-22T23:24:26.098Z,57.03
2019-02-22T23:26:57.754Z,51.47
2019-02-22T23:29:28.032Z,51.37
2019-02-22T23:31:59.722Z,49.23
2019-02-22T23:34:29.965Z,49.10
2019-02-22T23:37:00.190Z,46.80
2019-02-22T23:39:30.700Z,51.97
2019-02-22T23:42:00.910Z,52.10
2019-02-22T23:44:31.479Z,49.10
2019-02-22T23:47:02.112Z,46.00
2019-02-22T23:49:32.327Z,54.50
2019-02-22T23:52:02.515Z,53.43
2019-02-22T23:54:32.674Z,51.97
2019-02-22T23:57:02.886Z,51.37
2019-02-22T23:59:33.041Z,49.27
